Alexis Creek, Canada
Current Conditions -  °F | °C
As of 3:00 AM on Tuesday 21 Oct 2014 (Local Time) from CYWL Reporting Station
Few Clouds Few Clouds  
Wind Chill: 36°   Ceiling: Unl
Heat Index: 41°   Visibility: 15mi
Dew Point: 37°   Wind: 7mph
Humidity: 87%   Direction: 130°SE
Pressure: 29.63"   Gusts: NA
Location:  52.08°N, 123.28°W
Report Text: CYWL 211000Z 13006KT 15SM FEW100 05/03 A2963 RMK AC1 SLP046
Loading
Personal Weather Stations






























Interactive Weather Map
Tropical Storm Tracking
New forecast layout! Learn more

10-Day Weather Forecast

Advertisements
Track Severe Weather on mobile